createdAt,value
2022-10-25T00:10:24.834Z,15.61
2022-10-25T00:13:46.205Z,15.58
2022-10-25T00:20:37.556Z,15.52
2022-10-25T00:38:39.625Z,16.85
2022-10-25T00:42:13.438Z,16.75
2022-10-25T00:45:43.165Z,16.19
2022-10-25T00:59:29.738Z,15.50
2022-10-25T01:17:18.366Z,15.16
2022-10-25T01:51:36.113Z,14.85
2022-10-25T01:54:57.226Z,14.76
2022-10-25T02:02:45.147Z,14.58
2022-10-25T02:06:23.891Z,14.51
2022-10-25T02:20:22.156Z,14.32
2022-10-25T02:24:07.315Z,14.28
2022-10-25T02:27:41.449Z,14.22
2022-10-25T02:38:30.774Z,14.06
2022-10-25T02:42:36.660Z,14.01
2022-10-25T02:51:35.320Z,13.92
2022-10-25T02:53:47.338Z,13.87
2022-10-25T02:57:28.934Z,13.83
2022-10-25T03:07:57.566Z,13.83
2022-10-25T03:19:33.274Z,13.83
2022-10-25T03:23:36.729Z,13.85
2022-10-25T03:28:00.906Z,13.84
2022-10-25T03:48:43.180Z,14.02
2022-10-25T03:55:30.435Z,13.89
2022-10-25T04:00:09.211Z,13.84
2022-10-25T04:12:02.559Z,13.78
2022-10-25T04:14:37.680Z,13.79
2022-10-25T04:17:46.597Z,13.81
2022-10-25T05:59:10.075Z,13.45
2022-10-25T06:02:39.399Z,13.41
2022-10-25T06:06:35.257Z,13.41
2022-10-25T06:09:54.201Z,13.36
2022-10-25T06:12:33.908Z,13.39
2022-10-25T06:23:47.805Z,13.46
2022-10-25T06:27:09.824Z,13.50
2022-10-25T06:30:38.531Z,13.56
2022-10-25T06:34:28.096Z,13.59
2022-10-25T06:37:59.838Z,13.67
2022-10-25T06:42:26.638Z,13.79
2022-10-25T06:44:59.465Z,13.94
2022-10-25T06:48:19.828Z,14.07
2022-10-25T06:51:50.791Z,14.16
2022-10-25T06:58:25.442Z,14.33
2022-10-25T07:01:35.863Z,14.36
2022-10-25T07:05:09.842Z,14.39
2022-10-25T07:08:09.763Z,14.39
2022-10-25T07:11:22.741Z,14.44
2022-10-25T07:14:06.736Z,14.50
2022-10-25T07:16:56.121Z,14.58
2022-10-25T07:23:34.844Z,14.87
2022-10-25T07:26:55.939Z,15.04
2022-10-25T07:36:15.695Z,15.78
2022-10-25T07:39:08.592Z,16.07
2022-10-25T07:45:44.764Z,16.40
2022-10-25T07:48:30.609Z,16.57
2022-10-25T07:51:51.494Z,16.77
2022-10-25T07:55:16.813Z,17.06
2022-10-25T07:58:39.720Z,17.39
2022-10-25T08:02:10.122Z,17.62
2022-10-25T08:05:05.684Z,17.84
2022-10-25T08:08:22.766Z,17.98
2022-10-25T08:26:46.881Z,17.91
2022-10-25T08:29:49.458Z,17.89
2022-10-25T08:32:32.822Z,17.84
2022-10-25T08:38:35.889Z,17.77
2022-10-25T08:41:58.434Z,17.72
2022-10-25T08:45:02.352Z,17.66
2022-10-25T08:48:34.420Z,17.64
2022-10-25T08:51:35.413Z,17.63
2022-10-25T08:58:01.420Z,17.69
2022-10-25T09:01:07.272Z,17.75
2022-10-25T09:08:21.617Z,17.71
2022-10-25T09:11:23.623Z,17.74
2022-10-25T09:14:50.450Z,17.85
2022-10-25T09:19:14.861Z,17.98
2022-10-25T09:26:03.038Z,18.19
2022-10-25T09:35:03.745Z,17.87
2022-10-25T09:38:26.443Z,17.80
2022-10-25T09:41:35.315Z,17.71
2022-10-25T09:45:41.967Z,17.73
2022-10-25T09:59:48.217Z,18.22
2022-10-25T10:03:34.596Z,18.39
2022-10-25T10:19:30.526Z,19.16
2022-10-25T10:28:33.074Z,19.53
2022-10-25T10:31:06.439Z,19.43
2022-10-25T10:33:41.681Z,19.29
2022-10-25T10:36:29.200Z,19.27
2022-10-25T10:39:22.037Z,19.13
2022-10-25T10:42:36.913Z,18.95
2022-10-25T10:45:07.907Z,18.70
2022-10-25T10:47:52.365Z,18.55
2022-10-25T10:50:36.526Z,18.43
2022-10-25T10:53:29.780Z,18.42
2022-10-25T10:56:29.660Z,18.52
2022-10-25T10:59:03.242Z,18.67
2022-10-25T11:01:35.880Z,18.72
2022-10-25T11:04:08.431Z,18.72
2022-10-25T11:07:14.772Z,18.73
2022-10-25T11:09:48.973Z,18.67
2022-10-25T11:12:19.038Z,18.60
2022-10-25T11:15:05.338Z,18.54
2022-10-25T11:17:41.030Z,18.50
2022-10-25T11:20:48.115Z,18.50
2022-10-25T11:23:36.692Z,18.45
2022-10-25T11:26:34.596Z,18.37
2022-10-25T11:29:34.371Z,18.30
2022-10-25T11:33:16.410Z,18.30
2022-10-25T11:41:02.729Z,18.25
2022-10-25T11:44:14.545Z,18.37
2022-10-25T11:47:30.246Z,18.44
2022-10-25T11:50:46.541Z,18.53
2022-10-25T11:53:43.673Z,18.54
2022-10-25T11:56:44.429Z,18.53
2022-10-25T12:00:10.606Z,18.48
2022-10-25T12:03:34.383Z,18.39
2022-10-25T12:06:46.157Z,18.37
2022-10-25T12:09:53.830Z,18.41
2022-10-25T12:12:43.194Z,18.36
2022-10-25T12:15:45.740Z,18.27
2022-10-25T12:18:46.417Z,18.20
2022-10-25T12:21:32.744Z,18.16
2022-10-25T12:24:18.798Z,18.10
2022-10-25T12:27:05.653Z,18.06
2022-10-25T12:29:55.607Z,18.05
2022-10-25T12:33:06.399Z,18.00
2022-10-25T12:35:52.629Z,17.99
2022-10-25T12:38:41.991Z,18.02
2022-10-25T12:41:44.752Z,18.03
2022-10-25T12:44:40.094Z,18.03
2022-10-25T12:48:23.963Z,18.07
2022-10-25T12:51:39.495Z,18.04
2022-10-25T12:55:36.814Z,18.03
2022-10-25T12:58:43.913Z,18.00
2022-10-25T13:02:24.307Z,17.97
2022-10-25T13:05:33.758Z,17.91
2022-10-25T13:08:10.249Z,17.85
2022-10-25T13:11:04.893Z,17.77
2022-10-25T13:13:56.020Z,17.71
2022-10-25T13:16:34.654Z,17.63
2022-10-25T13:21:55.856Z,17.44
2022-10-25T13:27:19.164Z,17.29
2022-10-25T13:30:14.864Z,17.26
2022-10-25T13:33:18.611Z,17.24
2022-10-25T13:36:11.443Z,17.22
2022-10-25T13:39:03.012Z,17.23
2022-10-25T13:41:48.767Z,17.27
2022-10-25T13:44:26.971Z,17.29
2022-10-25T13:47:17.510Z,17.33
2022-10-25T13:49:52.879Z,17.38
2022-10-25T13:52:38.005Z,17.42
2022-10-25T13:55:19.075Z,17.41
2022-10-25T13:58:01.621Z,17.41
2022-10-25T14:00:57.775Z,17.39
2022-10-25T14:03:51.972Z,17.35
2022-10-25T14:06:27.755Z,17.30
2022-10-25T14:09:44.587Z,17.26
2022-10-25T14:12:20.178Z,17.20
2022-10-25T14:15:02.993Z,17.18
2022-10-25T14:17:46.794Z,17.14
2022-10-25T14:20:33.144Z,17.12
2022-10-25T14:23:14.552Z,17.13
2022-10-25T14:26:01.129Z,17.14
2022-10-25T14:28:40.149Z,17.15
2022-10-25T14:31:21.539Z,17.15
2022-10-25T14:34:05.869Z,17.08
2022-10-25T14:36:42.201Z,17.08
2022-10-25T14:39:25.412Z,17.09
2022-10-25T14:42:38.488Z,17.08
2022-10-25T14:45:50.224Z,17.01
2022-10-25T14:48:36.791Z,17.00
2022-10-25T14:51:25.605Z,17.01
2022-10-25T14:54:45.003Z,17.01
2022-10-25T14:58:03.962Z,16.94
2022-10-25T15:01:26.591Z,16.92
2022-10-25T15:04:06.238Z,16.91
2022-10-25T15:06:47.412Z,16.89
2022-10-25T15:10:00.734Z,16.78
2022-10-25T15:12:48.227Z,16.73
2022-10-25T15:15:47.099Z,16.67
2022-10-25T15:18:45.955Z,16.58
2022-10-25T15:22:31.020Z,16.50
2022-10-25T15:25:04.441Z,16.40
2022-10-25T15:28:09.067Z,16.33
2022-10-25T15:30:48.588Z,16.22
2022-10-25T15:33:48.683Z,16.14
2022-10-25T15:36:31.316Z,16.04
2022-10-25T15:42:39.005Z,15.88
2022-10-25T15:45:31.091Z,15.80
2022-10-25T15:48:22.047Z,15.76
2022-10-25T15:50:59.937Z,15.72
2022-10-25T15:53:38.059Z,15.67
2022-10-25T15:56:40.927Z,15.63
2022-10-25T15:59:32.588Z,15.56
2022-10-25T16:02:38.466Z,15.51
2022-10-25T16:05:29.109Z,15.49
2022-10-25T16:08:04.212Z,15.47
2022-10-25T16:10:33.924Z,15.47
2022-10-25T16:13:12.844Z,15.45
2022-10-25T16:15:43.413Z,15.42
2022-10-25T16:18:15.743Z,15.40
2022-10-25T16:20:47.803Z,15.36
2022-10-25T16:23:24.122Z,15.34
2022-10-25T16:25:58.447Z,15.31
2022-10-25T16:28:40.798Z,15.26
2022-10-25T16:31:16.420Z,15.21
2022-10-25T16:33:52.298Z,15.16
2022-10-25T16:36:24.670Z,15.11
2022-10-25T16:38:55.290Z,15.06
2022-10-25T16:41:29.674Z,15.02
2022-10-25T16:44:02.362Z,14.96
2022-10-25T16:46:39.305Z,14.87
2022-10-25T16:49:11.504Z,14.79
2022-10-25T16:51:44.517Z,14.75
2022-10-25T16:54:17.923Z,14.72
2022-10-25T16:57:02.439Z,14.68
2022-10-25T16:59:32.808Z,14.64
2022-10-25T17:02:05.606Z,14.62
2022-10-25T17:04:34.778Z,14.59
2022-10-25T17:07:08.737Z,14.56
2022-10-25T17:09:41.951Z,14.53
2022-10-25T17:12:13.242Z,14.49
2022-10-25T17:14:42.219Z,14.45
2022-10-25T17:17:11.487Z,14.42
2022-10-25T17:19:45.080Z,14.38
2022-10-25T17:22:14.228Z,14.35
2022-10-25T17:24:45.321Z,14.21
2022-10-25T17:27:23.153Z,14.18
2022-10-25T17:29:52.708Z,14.16
2022-10-25T17:32:25.557Z,14.17
2022-10-25T17:34:54.833Z,14.17
2022-10-25T17:37:26.235Z,14.16
2022-10-25T17:40:02.742Z,14.16
2022-10-25T17:42:32.957Z,14.15
2022-10-25T17:45:07.723Z,14.14
2022-10-25T17:47:37.729Z,14.13
2022-10-25T17:50:07.182Z,14.14
2022-10-25T17:52:36.215Z,14.13
2022-10-25T17:55:06.511Z,14.13
2022-10-25T17:57:36.487Z,14.13
2022-10-25T18:00:27.532Z,14.11
2022-10-25T18:03:07.602Z,14.07
2022-10-25T18:05:49.580Z,14.05
2022-10-25T18:08:25.517Z,14.04
2022-10-25T18:11:19.468Z,14.01
2022-10-25T18:13:57.539Z,13.97
2022-10-25T18:16:33.765Z,13.95
2022-10-25T18:19:05.763Z,13.95
2022-10-25T18:21:38.392Z,13.93
2022-10-25T18:24:13.438Z,13.90
2022-10-25T18:26:42.911Z,13.84
2022-10-25T18:29:14.663Z,13.81
2022-10-25T18:31:46.398Z,13.67
2022-10-25T18:34:15.805Z,13.63
2022-10-25T18:36:51.862Z,13.62
2022-10-25T18:39:21.314Z,13.59
2022-10-25T18:41:55.085Z,13.56
2022-10-25T18:44:25.465Z,13.41
2022-10-25T18:46:57.136Z,13.36
2022-10-25T18:49:31.880Z,13.34
2022-10-25T18:52:03.597Z,13.32
2022-10-25T18:54:37.142Z,13.31
2022-10-25T18:57:13.699Z,13.27
2022-10-25T18:59:43.035Z,13.25
2022-10-25T19:02:14.893Z,13.22
2022-10-25T19:04:44.288Z,13.20
2022-10-25T19:07:16.802Z,13.17
2022-10-25T19:09:54.892Z,13.16
2022-10-25T19:12:27.917Z,13.13
2022-10-25T19:15:03.085Z,13.11
2022-10-25T19:17:35.137Z,13.09
2022-10-25T19:20:07.362Z,13.08
2022-10-25T19:22:39.525Z,13.05
2022-10-25T19:25:11.136Z,13.02
2022-10-25T19:27:40.203Z,12.99
2022-10-25T19:30:10.345Z,12.96
2022-10-25T19:32:54.588Z,12.92
2022-10-25T19:35:28.224Z,12.90
2022-10-25T19:38:09.901Z,12.88
2022-10-25T19:40:40.419Z,12.87
2022-10-25T19:43:15.287Z,12.85
2022-10-25T19:45:51.012Z,12.83
2022-10-25T19:48:33.647Z,12.79
2022-10-25T19:51:10.476Z,12.76
2022-10-25T19:53:40.752Z,12.75
2022-10-25T19:56:39.200Z,12.73
2022-10-25T19:59:15.146Z,12.70
2022-10-25T20:01:47.765Z,12.70
2022-10-25T20:04:20.351Z,12.69
2022-10-25T20:07:31.006Z,12.67
2022-10-25T20:10:10.395Z,12.62
2022-10-25T20:12:44.270Z,12.61
2022-10-25T20:15:38.561Z,12.50
2022-10-25T20:18:11.208Z,12.48
2022-10-25T20:20:45.087Z,12.49
2022-10-25T20:23:20.128Z,12.49
2022-10-25T20:25:59.739Z,12.47
2022-10-25T20:28:44.248Z,12.38
2022-10-25T20:31:24.772Z,12.36
2022-10-25T20:34:11.057Z,12.36
2022-10-25T20:36:47.874Z,12.38
2022-10-25T20:39:21.228Z,12.37
2022-10-25T20:42:03.982Z,12.39
2022-10-25T20:44:54.032Z,12.39
2022-10-25T20:47:46.373Z,12.38
2022-10-25T20:50:20.446Z,12.38
2022-10-25T20:53:10.161Z,12.39
2022-10-25T20:55:48.990Z,12.41
2022-10-25T20:58:41.385Z,12.44
2022-10-25T21:01:17.922Z,12.44
2022-10-25T21:03:51.170Z,12.45
2022-10-25T21:06:45.271Z,12.44
2022-10-25T21:09:19.562Z,12.45
2022-10-25T21:11:50.240Z,12.46
2022-10-25T21:17:26.448Z,12.47
2022-10-25T21:20:15.635Z,12.46
2022-10-25T21:23:00.187Z,12.46
2022-10-25T21:25:47.522Z,12.46
2022-10-25T21:28:36.783Z,12.47
2022-10-25T21:31:24.058Z,12.48
2022-10-25T21:34:06.908Z,12.49
2022-10-25T21:36:41.986Z,12.49
2022-10-25T21:39:19.845Z,12.52
2022-10-25T21:42:03.531Z,12.55
2022-10-25T21:45:07.381Z,12.54
2022-10-25T21:47:49.871Z,12.57
2022-10-25T21:50:42.505Z,12.61
2022-10-25T21:53:35.016Z,12.64
2022-10-25T21:56:42.898Z,12.69
2022-10-25T21:59:26.329Z,12.72
2022-10-25T22:02:02.670Z,12.76
2022-10-25T22:04:49.679Z,12.78
2022-10-25T22:07:32.347Z,12.80
2022-10-25T22:10:10.525Z,12.72
2022-10-25T22:12:49.671Z,12.69
2022-10-25T22:15:21.370Z,12.70
2022-10-25T22:18:01.400Z,12.69
2022-10-25T22:23:50.480Z,12.62
2022-10-25T22:26:44.741Z,12.61
2022-10-25T22:29:36.823Z,12.48
2022-10-25T22:32:32.819Z,12.44
2022-10-25T22:35:31.398Z,12.43
2022-10-25T22:38:12.258Z,12.42
2022-10-25T22:41:04.121Z,12.39
2022-10-25T22:43:50.919Z,12.39
2022-10-25T22:46:35.053Z,12.37
2022-10-25T22:49:12.846Z,12.36
2022-10-25T22:51:47.889Z,12.39
2022-10-25T22:54:33.867Z,12.41
2022-10-25T22:57:15.723Z,12.42
2022-10-25T23:00:10.761Z,12.42
2022-10-25T23:03:05.366Z,12.41
2022-10-25T23:05:42.382Z,12.42
2022-10-25T23:08:33.658Z,12.43
2022-10-25T23:11:27.823Z,12.44
2022-10-25T23:14:14.864Z,12.45
2022-10-25T23:16:49.771Z,12.47
2022-10-25T23:20:17.675Z,12.48
2022-10-25T23:22:35.937Z,12.45
2022-10-25T23:25:06.908Z,12.43
2022-10-25T23:27:47.617Z,12.32
2022-10-25T23:30:28.809Z,12.30
2022-10-25T23:33:17.423Z,12.29
2022-10-25T23:35:54.774Z,12.28
2022-10-25T23:38:26.058Z,12.27
2022-10-25T23:40:59.825Z,12.25
2022-10-25T23:43:53.786Z,12.23
2022-10-25T23:46:43.257Z,12.19
2022-10-25T23:54:28.406Z,11.98
2022-10-25T23:56:57.119Z,11.94
2022-10-25T23:59:25.983Z,11.92
